sensor_id;sensor_type;location;lat;lon;timestamp;pressure;altitude;pressure_sealevel;temperature;humidity
9059;BME280;4564;42.034;25.834;2023-03-04T00:00:48;100412.19;;;2.37;100.00
9059;BME280;4564;42.034;25.834;2023-03-04T00:03:15;100406.22;;;2.34;100.00
9059;BME280;4564;42.034;25.834;2023-03-04T00:05:41;100401.31;;;2.39;100.00
9059;BME280;4564;42.034;25.834;2023-03-04T00:08:08;100397.88;;;2.48;100.00
9059;BME280;4564;42.034;25.834;2023-03-04T00:10:35;100392.59;;;2.67;100.00
9059;BME280;4564;42.034;25.834;2023-03-04T00:13:01;100402.31;;;2.68;100.00
9059;BME280;4564;42.034;25.834;2023-03-04T00:15:28;100404.72;;;2.71;100.00
9059;BME280;4564;42.034;25.834;2023-03-04T00:17:55;100392.88;;;2.64;100.00
9059;BME280;4564;42.034;25.834;2023-03-04T00:20:22;100393.13;;;2.61;100.00
9059;BME280;4564;42.034;25.834;2023-03-04T00:22:49;100393.25;;;2.60;100.00
9059;BME280;4564;42.034;25.834;2023-03-04T00:25:15;100398.31;;;2.53;100.00
9059;BME280;4564;42.034;25.834;2023-03-04T00:27:42;100386.34;;;2.57;100.00
9059;BME280;4564;42.034;25.834;2023-03-04T00:30:09;100395.94;;;2.60;100.00
9059;BME280;4564;42.034;25.834;2023-03-04T00:32:36;100392.31;;;2.70;100.00
9059;BME280;4564;42.034;25.834;2023-03-04T00:35:04;100394.00;;;2.71;100.00
9059;BME280;4564;42.034;25.834;2023-03-04T00:37:31;100388.53;;;2.73;100.00
9059;BME280;4564;42.034;25.834;2023-03-04T00:39:57;100385.97;;;2.71;100.00
9059;BME280;4564;42.034;25.834;2023-03-04T00:42:24;100380.19;;;2.76;100.00
9059;BME280;4564;42.034;25.834;2023-03-04T00:44:51;100382.50;;;2.80;100.00
9059;BME280;4564;42.034;25.834;2023-03-04T00:47:17;100384.59;;;2.86;100.00
9059;BME280;4564;42.034;25.834;2023-03-04T00:49:44;100387.56;;;2.83;100.00
9059;BME280;4564;42.034;25.834;2023-03-04T00:52:12;100385.88;;;2.82;100.00
9059;BME280;4564;42.034;25.834;2023-03-04T00:54:38;100386.47;;;2.86;100.00
9059;BME280;4564;42.034;25.834;2023-03-04T00:57:05;100394.50;;;2.86;100.00
9059;BME280;4564;42.034;25.834;2023-03-04T00:59:31;100402.25;;;2.89;100.00
9059;BME280;4564;42.034;25.834;2023-03-04T01:01:58;100401.16;;;2.91;100.00
9059;BME280;4564;42.034;25.834;2023-03-04T01:04:24;100406.13;;;3.06;100.00
9059;BME280;4564;42.034;25.834;2023-03-04T01:06:51;100403.88;;;3.11;100.00
9059;BME280;4564;42.034;25.834;2023-03-04T01:09:19;100394.69;;;3.04;100.00
9059;BME280;4564;42.034;25.834;2023-03-04T01:11:45;100403.44;;;3.06;100.00
9059;BME280;4564;42.034;25.834;2023-03-04T01:14:12;100396.50;;;3.03;100.00
9059;BME280;4564;42.034;25.834;2023-03-04T01:16:39;100389.63;;;3.01;100.00
9059;BME280;4564;42.034;25.834;2023-03-04T01:19:05;100384.78;;;2.94;100.00
9059;BME280;4564;42.034;25.834;2023-03-04T01:21:32;100394.25;;;2.99;100.00
9059;BME280;4564;42.034;25.834;2023-03-04T01:23:58;100409.34;;;3.00;100.00
9059;BME280;4564;42.034;25.834;2023-03-04T01:26:26;100399.78;;;3.07;100.00
9059;BME280;4564;42.034;25.834;2023-03-04T01:28:53;100399.91;;;2.95;100.00
9059;BME280;4564;42.034;25.834;2023-03-04T01:31:19;100394.78;;;2.92;100.00
9059;BME280;4564;42.034;25.834;2023-03-04T01:33:46;100385.66;;;2.95;100.00
9059;BME280;4564;42.034;25.834;2023-03-04T01:36:13;100396.50;;;2.93;100.00
9059;BME280;4564;42.034;25.834;2023-03-04T01:38:39;100396.06;;;2.88;100.00
9059;BME280;4564;42.034;25.834;2023-03-04T01:41:06;100392.38;;;2.80;100.00
9059;BME280;4564;42.034;25.834;2023-03-04T01:43:34;100394.94;;;2.61;100.00
9059;BME280;4564;42.034;25.834;2023-03-04T01:46:01;100391.13;;;2.33;100.00
9059;BME280;4564;42.034;25.834;2023-03-04T01:48:28;100396.25;;;2.15;100.00
9059;BME280;4564;42.034;25.834;2023-03-04T01:50:58;100395.53;;;2.13;100.00
9059;BME280;4564;42.034;25.834;2023-03-04T01:53:27;100390.06;;;2.15;100.00
9059;BME280;4564;42.034;25.834;2023-03-04T01:55:55;100385.47;;;2.05;100.00
9059;BME280;4564;42.034;25.834;2023-03-04T01:58:22;100385.22;;;1.88;100.00
9059;BME280;4564;42.034;25.834;2023-03-04T02:00:51;100376.28;;;1.98;100.00
9059;BME280;4564;42.034;25.834;2023-03-04T02:03:18;100375.78;;;2.04;100.00
9059;BME280;4564;42.034;25.834;2023-03-04T02:05:46;100384.56;;;1.95;100.00
9059;BME280;4564;42.034;25.834;2023-03-04T02:08:13;100385.28;;;1.97;100.00
9059;BME280;4564;42.034;25.834;2023-03-04T02:10:41;100387.38;;;1.94;100.00
9059;BME280;4564;42.034;25.834;2023-03-04T02:13:08;100384.31;;;1.98;100.00
9059;BME280;4564;42.034;25.834;2023-03-04T02:15:36;100391.31;;;2.10;100.00
9059;BME280;4564;42.034;25.834;2023-03-04T02:18:06;100388.75;;;2.30;100.00
9059;BME280;4564;42.034;25.834;2023-03-04T02:20:38;100389.09;;;2.46;100.00
9059;BME280;4564;42.034;25.834;2023-03-04T02:23:10;100393.94;;;2.52;100.00
9059;BME280;4564;42.034;25.834;2023-03-04T02:25:46;100381.00;;;2.57;100.00
9059;BME280;4564;42.034;25.834;2023-03-04T02:28:22;100386.69;;;2.73;100.00
9059;BME280;4564;42.034;25.834;2023-03-04T02:30:48;100388.13;;;2.87;100.00
9059;BME280;4564;42.034;25.834;2023-03-04T02:33:16;100390.44;;;2.91;100.00
9059;BME280;4564;42.034;25.834;2023-03-04T02:35:43;100389.47;;;3.02;100.00
9059;BME280;4564;42.034;25.834;2023-03-04T02:38:10;100382.03;;;3.15;100.00
9059;BME280;4564;42.034;25.834;2023-03-04T02:40:37;100381.75;;;3.18;100.00
9059;BME280;4564;42.034;25.834;2023-03-04T02:43:05;100382.03;;;3.25;100.00
9059;BME280;4564;42.034;25.834;2023-03-04T02:45:37;100380.94;;;3.27;100.00
9059;BME280;4564;42.034;25.834;2023-03-04T02:48:04;100370.19;;;3.27;100.00
9059;BME280;4564;42.034;25.834;2023-03-04T02:50:33;100374.28;;;3.31;100.00
9059;BME280;4564;42.034;25.834;2023-03-04T02:53:00;100373.59;;;3.39;100.00
9059;BME280;4564;42.034;25.834;2023-03-04T02:55:27;100366.25;;;3.41;100.00
9059;BME280;4564;42.034;25.834;2023-03-04T02:57:54;100361.19;;;3.38;100.00
9059;BME280;4564;42.034;25.834;2023-03-04T03:00:20;100363.56;;;3.31;100.00
9059;BME280;4564;42.034;25.834;2023-03-04T03:02:48;100359.84;;;3.13;100.00
9059;BME280;4564;42.034;25.834;2023-03-04T03:05:15;100367.19;;;3.02;100.00
9059;BME280;4564;42.034;25.834;2023-03-04T03:07:42;100367.72;;;2.95;100.00
9059;BME280;4564;42.034;25.834;2023-03-04T03:10:09;100372.66;;;2.90;100.00
9059;BME280;4564;42.034;25.834;2023-03-04T03:12:36;100371.38;;;2.85;100.00
9059;BME280;4564;42.034;25.834;2023-03-04T03:15:03;100380.25;;;2.85;100.00
9059;BME280;4564;42.034;25.834;2023-03-04T03:17:30;100381.56;;;2.91;100.00
9059;BME280;4564;42.034;25.834;2023-03-04T03:19:58;100386.81;;;3.02;100.00
9059;BME280;4564;42.034;25.834;2023-03-04T03:22:24;100385.97;;;3.11;100.00
9059;BME280;4564;42.034;25.834;2023-03-04T03:24:51;100381.72;;;3.09;100.00
9059;BME280;4564;42.034;25.834;2023-03-04T03:27:18;100385.41;;;3.08;100.00
9059;BME280;4564;42.034;25.834;2023-03-04T03:29:44;100384.44;;;3.18;100.00
9059;BME280;4564;42.034;25.834;2023-03-04T03:32:11;100389.38;;;3.23;100.00
9059;BME280;4564;42.034;25.834;2023-03-04T03:34:37;100394.19;;;3.29;100.00
9059;BME280;4564;42.034;25.834;2023-03-04T03:37:05;100392.94;;;3.33;100.00
9059;BME280;4564;42.034;25.834;2023-03-04T03:39:32;100393.63;;;3.35;100.00
9059;BME280;4564;42.034;25.834;2023-03-04T03:41:58;100397.75;;;3.39;100.00
9059;BME280;4564;42.034;25.834;2023-03-04T03:44:25;100401.53;;;3.46;100.00
9059;BME280;4564;42.034;25.834;2023-03-04T03:46:52;100402.13;;;3.50;100.00
9059;BME280;4564;42.034;25.834;2023-03-04T03:49:19;100406.78;;;3.48;100.00
9059;BME280;4564;42.034;25.834;2023-03-04T03:51:45;100410.31;;;3.48;100.00
9059;BME280;4564;42.034;25.834;2023-03-04T03:54:13;100403.53;;;3.44;100.00
9059;BME280;4564;42.034;25.834;2023-03-04T03:56:40;100413.41;;;3.44;100.00
9059;BME280;4564;42.034;25.834;2023-03-04T03:59:07;100412.13;;;3.38;100.00
9059;BME280;4564;42.034;25.834;2023-03-04T04:01:33;100415.06;;;3.35;100.00
9059;BME280;4564;42.034;25.834;2023-03-04T04:04:02;100409.16;;;3.31;100.00
9059;BME280;4564;42.034;25.834;2023-03-04T04:06:31;100407.19;;;3.33;100.00
9059;BME280;4564;42.034;25.834;2023-03-04T04:08:58;100400.13;;;3.42;100.00
9059;BME280;4564;42.034;25.834;2023-03-04T04:11:26;100396.78;;;3.50;100.00
9059;BME280;4564;42.034;25.834;2023-03-04T04:13:52;100391.53;;;3.58;100.00
9059;BME280;4564;42.034;25.834;2023-03-04T04:16:19;100397.31;;;3.53;100.00
9059;BME280;4564;42.034;25.834;2023-03-04T04:18:45;100390.13;;;3.44;100.00
9059;BME280;4564;42.034;25.834;2023-03-04T04:21:12;100391.34;;;3.30;100.00
9059;BME280;4564;42.034;25.834;2023-03-04T04:23:39;100400.53;;;3.28;100.00
9059;BME280;4564;42.034;25.834;2023-03-04T04:26:05;100403.78;;;3.22;100.00
9059;BME280;4564;42.034;25.834;2023-03-04T04:28:33;100394.69;;;3.13;100.00
9059;BME280;4564;42.034;25.834;2023-03-04T04:31:00;100388.78;;;3.10;100.00
9059;BME280;4564;42.034;25.834;2023-03-04T04:33:26;100385.09;;;2.91;100.00
9059;BME280;4564;42.034;25.834;2023-03-04T04:35:53;100392.41;;;2.89;100.00
9059;BME280;4564;42.034;25.834;2023-03-04T04:38:19;100391.97;;;2.84;100.00
9059;BME280;4564;42.034;25.834;2023-03-04T04:40:46;100388.69;;;2.81;100.00
9059;BME280;4564;42.034;25.834;2023-03-04T04:43:13;100390.63;;;2.69;100.00
9059;BME280;4564;42.034;25.834;2023-03-04T04:45:41;100387.22;;;2.67;100.00
9059;BME280;4564;42.034;25.834;2023-03-04T04:48:08;100387.50;;;2.64;100.00
9059;BME280;4564;42.034;25.834;2023-03-04T04:50:34;100388.91;;;2.59;100.00
9059;BME280;4564;42.034;25.834;2023-03-04T04:53:01;100386.91;;;2.61;100.00
9059;BME280;4564;42.034;25.834;2023-03-04T04:55:28;100390.03;;;2.66;100.00
9059;BME280;4564;42.034;25.834;2023-03-04T04:57:54;100399.81;;;2.76;100.00
9059;BME280;4564;42.034;25.834;2023-03-04T05:00:21;100395.75;;;2.51;100.00
9059;BME280;4564;42.034;25.834;2023-03-04T05:02:49;100395.19;;;2.48;100.00
9059;BME280;4564;42.034;25.834;2023-03-04T05:05:15;100389.47;;;2.62;100.00
9059;BME280;4564;42.034;25.834;2023-03-04T05:07:42;100390.63;;;2.69;100.00
9059;BME280;4564;42.034;25.834;2023-03-04T05:10:09;100388.69;;;2.81;100.00
9059;BME280;4564;42.034;25.834;2023-03-04T05:12:36;100389.31;;;2.94;100.00
9059;BME280;4564;42.034;25.834;2023-03-04T05:15:02;100392.53;;;2.97;100.00
9059;BME280;4564;42.034;25.834;2023-03-04T05:17:29;100398.63;;;3.00;100.00
9059;BME280;4564;42.034;25.834;2023-03-04T05:19:57;100392.09;;;2.92;100.00
9059;BME280;4564;42.034;25.834;2023-03-04T05:22:24;100399.28;;;2.82;100.00
9059;BME280;4564;42.034;25.834;2023-03-04T05:24:50;100398.63;;;3.00;100.00
9059;BME280;4564;42.034;25.834;2023-03-04T05:27:17;100390.50;;;3.20;100.00
9059;BME280;4564;42.034;25.834;2023-03-04T05:29:43;100392.63;;;3.26;100.00
9059;BME280;4564;42.034;25.834;2023-03-04T05:32:11;100397.03;;;3.37;100.00
9059;BME280;4564;42.034;25.834;2023-03-04T05:34:37;100390.25;;;3.52;100.00
9059;BME280;4564;42.034;25.834;2023-03-04T05:37:05;100394.22;;;3.67;100.00
9059;BME280;4564;42.034;25.834;2023-03-04T05:39:32;100396.06;;;3.76;100.00
9059;BME280;4564;42.034;25.834;2023-03-04T05:41:58;100404.56;;;3.72;100.00
9059;BME280;4564;42.034;25.834;2023-03-04T05:44:25;100394.50;;;3.74;100.00
9059;BME280;4564;42.034;25.834;2023-03-04T05:46:52;100402.41;;;3.85;100.00
9059;BME280;4564;42.034;25.834;2023-03-04T05:49:18;100403.44;;;3.94;100.00
9059;BME280;4564;42.034;25.834;2023-03-04T05:51:45;100409.47;;;4.05;100.00
9059;BME280;4564;42.034;25.834;2023-03-04T05:54:13;100403.22;;;4.24;100.00
9059;BME280;4564;42.034;25.834;2023-03-04T05:56:40;100407.44;;;4.46;100.00
9059;BME280;4564;42.034;25.834;2023-03-04T05:59:07;100406.41;;;4.56;100.00
9059;BME280;4564;42.034;25.834;2023-03-04T06:01:33;100409.91;;;4.67;100.00
9059;BME280;4564;42.034;25.834;2023-03-04T06:04:00;100409.41;;;4.90;100.00
9059;BME280;4564;42.034;25.834;2023-03-04T06:06:27;100421.50;;;4.67;100.00
9059;BME280;4564;42.034;25.834;2023-03-04T06:08:53;100427.69;;;4.77;100.00
9059;BME280;4564;42.034;25.834;2023-03-04T06:11:21;100422.84;;;4.81;100.00
9059;BME280;4564;42.034;25.834;2023-03-04T06:13:48;100434.84;;;4.96;100.00
9059;BME280;4564;42.034;25.834;2023-03-04T06:16:14;100419.47;;;5.16;100.00
9059;BME280;4564;42.034;25.834;2023-03-04T06:18:41;100424.50;;;5.28;100.00
9059;BME280;4564;42.034;25.834;2023-03-04T06:21:07;100429.34;;;5.42;99.45
9059;BME280;4564;42.034;25.834;2023-03-04T06:23:34;100434.69;;;5.52;99.64
9059;BME280;4564;42.034;25.834;2023-03-04T06:26:01;100430.47;;;5.49;98.17
9059;BME280;4564;42.034;25.834;2023-03-04T06:28:29;100436.22;;;5.55;97.77
9059;BME280;4564;42.034;25.834;2023-03-04T06:30:55;100442.28;;;5.57;96.55
9059;BME280;4564;42.034;25.834;2023-03-04T06:33:23;100434.03;;;5.13;97.85
9059;BME280;4564;42.034;25.834;2023-03-04T06:35:52;100428.34;;;4.89;99.19
9059;BME280;4564;42.034;25.834;2023-03-04T06:38:19;100430.50;;;4.76;100.00
9059;BME280;4564;42.034;25.834;2023-03-04T06:40:45;100435.69;;;4.96;100.00
9059;BME280;4564;42.034;25.834;2023-03-04T06:43:12;100431.31;;;5.23;100.00
9059;BME280;4564;42.034;25.834;2023-03-04T06:45:40;100426.03;;;5.31;99.85
9059;BME280;4564;42.034;25.834;2023-03-04T06:48:06;100434.53;;;5.54;99.99
9059;BME280;4564;42.034;25.834;2023-03-04T06:50:33;100434.78;;;5.78;99.32
9059;BME280;4564;42.034;25.834;2023-03-04T06:53:00;100434.13;;;6.11;98.30
9059;BME280;4564;42.034;25.834;2023-03-04T06:55:26;100425.25;;;6.37;96.29
9059;BME280;4564;42.034;25.834;2023-03-04T06:57:53;100423.34;;;6.55;95.56
9059;BME280;4564;42.034;25.834;2023-03-04T07:00:20;100433.41;;;7.04;96.39
9059;BME280;4564;42.034;25.834;2023-03-04T07:02:49;100441.53;;;7.63;94.04
9059;BME280;4564;42.034;25.834;2023-03-04T07:05:16;100445.81;;;7.81;91.73
9059;BME280;4564;42.034;25.834;2023-03-04T07:07:42;100441.34;;;8.30;89.87
9059;BME280;4564;42.034;25.834;2023-03-04T07:10:09;100443.53;;;8.51;88.21
9059;BME280;4564;42.034;25.834;2023-03-04T07:12:36;100429.31;;;8.49;89.03
9059;BME280;4564;42.034;25.834;2023-03-04T07:15:03;100430.63;;;8.69;89.09
9059;BME280;4564;42.034;25.834;2023-03-04T07:17:30;100431.59;;;9.01;88.53
9059;BME280;4564;42.034;25.834;2023-03-04T07:19:58;100420.94;;;8.99;88.62
9059;BME280;4564;42.034;25.834;2023-03-04T07:22:25;100428.25;;;8.91;87.19
9059;BME280;4564;42.034;25.834;2023-03-04T07:24:51;100424.94;;;8.48;90.04
9059;BME280;4564;42.034;25.834;2023-03-04T07:27:18;100432.84;;;8.74;89.16
9059;BME280;4564;42.034;25.834;2023-03-04T07:29:44;100427.25;;;8.83;88.74
9059;BME280;4564;42.034;25.834;2023-03-04T07:32:11;100431.34;;;8.63;89.22
9059;BME280;4564;42.034;25.834;2023-03-04T07:34:37;100432.69;;;8.67;91.27
9059;BME280;4564;42.034;25.834;2023-03-04T07:37:05;100438.41;;;8.80;91.21
9059;BME280;4564;42.034;25.834;2023-03-04T07:39:32;100445.25;;;9.07;89.39
9059;BME280;4564;42.034;25.834;2023-03-04T07:41:58;100437.34;;;9.06;89.27
9059;BME280;4564;42.034;25.834;2023-03-04T07:44:25;100434.00;;;8.96;89.61
9059;BME280;4564;42.034;25.834;2023-03-04T07:46:51;100435.16;;;8.93;89.38
9059;BME280;4564;42.034;25.834;2023-03-04T07:49:18;100425.16;;;9.02;88.95
9059;BME280;4564;42.034;25.834;2023-03-04T07:51:44;100431.28;;;8.96;89.77
9059;BME280;4564;42.034;25.834;2023-03-04T07:54:12;100425.16;;;9.02;89.36
9059;BME280;4564;42.034;25.834;2023-03-04T07:56:39;100424.28;;;9.17;88.94
9059;BME280;4564;42.034;25.834;2023-03-04T07:59:06;100416.81;;;9.19;88.38
9059;BME280;4564;42.034;25.834;2023-03-04T08:01:33;100419.66;;;9.26;89.33
9059;BME280;4564;42.034;25.834;2023-03-04T08:04:00;100420.66;;;9.25;89.18
9059;BME280;4564;42.034;25.834;2023-03-04T08:06:27;100421.06;;;9.14;90.17
9059;BME280;4564;42.034;25.834;2023-03-04T08:08:55;100421.06;;;9.14;90.49
9059;BME280;4564;42.034;25.834;2023-03-04T08:11:23;100417.66;;;9.20;91.31
9059;BME280;4564;42.034;25.834;2023-03-04T08:13:50;100417.03;;;9.41;89.75
9059;BME280;4564;42.034;25.834;2023-03-04T08:16:18;100424.22;;;9.64;89.08
9059;BME280;4564;42.034;25.834;2023-03-04T08:18:46;100413.69;;;9.69;88.35
9059;BME280;4564;42.034;25.834;2023-03-04T08:21:14;100408.25;;;9.69;88.21
9059;BME280;4564;42.034;25.834;2023-03-04T08:23:41;100413.53;;;9.63;89.84
9059;BME280;4564;42.034;25.834;2023-03-04T08:26:08;100411.75;;;9.78;88.73
9059;BME280;4564;42.034;25.834;2023-03-04T08:28:36;100419.44;;;9.66;89.65
9059;BME280;4564;42.034;25.834;2023-03-04T08:31:03;100418.44;;;9.90;89.46
9059;BME280;4564;42.034;25.834;2023-03-04T08:33:29;100411.28;;;9.97;89.00
9059;BME280;4564;42.034;25.834;2023-03-04T08:35:56;100415.78;;;10.36;87.72
9059;BME280;4564;42.034;25.834;2023-03-04T08:38:23;100419.78;;;10.40;86.77
9059;BME280;4564;42.034;25.834;2023-03-04T08:40:52;100416.66;;;10.28;87.53
9059;BME280;4564;42.034;25.834;2023-03-04T08:43:19;100417.38;;;10.45;86.94
9059;BME280;4564;42.034;25.834;2023-03-04T08:45:47;100417.28;;;10.53;87.82
9059;BME280;4564;42.034;25.834;2023-03-04T08:48:14;100426.03;;;10.78;87.06
9059;BME280;4564;42.034;25.834;2023-03-04T08:50:42;100418.75;;;10.93;87.77
9059;BME280;4564;42.034;25.834;2023-03-04T08:53:08;100425.94;;;11.30;86.71
9059;BME280;4564;42.034;25.834;2023-03-04T08:55:36;100421.81;;;11.49;85.29
9059;BME280;4564;42.034;25.834;2023-03-04T08:58:03;100423.38;;;11.58;86.77
9059;BME280;4564;42.034;25.834;2023-03-04T09:00:30;100419.97;;;11.85;84.73
9059;BME280;4564;42.034;25.834;2023-03-04T09:02:58;100416.94;;;12.16;83.96
9059;BME280;4564;42.034;25.834;2023-03-04T09:05:25;100413.72;;;12.55;82.73
9059;BME280;4564;42.034;25.834;2023-03-04T09:07:51;100408.66;;;12.73;82.19
9059;BME280;4564;42.034;25.834;2023-03-04T09:10:18;100408.34;;;13.24;80.96
9059;BME280;4564;42.034;25.834;2023-03-04T09:12:45;100403.72;;;13.65;79.38
9059;BME280;4564;42.034;25.834;2023-03-04T09:15:11;100405.09;;;14.09;77.58
9059;BME280;4564;42.034;25.834;2023-03-04T09:17:38;100396.28;;;14.33;77.97
9059;BME280;4564;42.034;25.834;2023-03-04T09:20:08;100390.31;;;13.83;78.27
9059;BME280;4564;42.034;25.834;2023-03-04T09:22:35;100381.97;;;13.92;78.48
9059;BME280;4564;42.034;25.834;2023-03-04T09:25:02;100374.44;;;14.13;76.38
9059;BME280;4564;42.034;25.834;2023-03-04T09:27:29;100371.56;;;14.41;77.07
9059;BME280;4564;42.034;25.834;2023-03-04T09:29:55;100369.84;;;14.73;74.02
9059;BME280;4564;42.034;25.834;2023-03-04T09:32:22;100372.16;;;14.50;75.65
9059;BME280;4564;42.034;25.834;2023-03-04T09:34:48;100365.25;;;14.41;75.09
9059;BME280;4564;42.034;25.834;2023-03-04T09:37:16;100368.16;;;14.52;76.40
9059;BME280;4564;42.034;25.834;2023-03-04T09:39:43;100365.63;;;14.31;75.22
9059;BME280;4564;42.034;25.834;2023-03-04T09:42:10;100357.44;;;14.70;74.68
9059;BME280;4564;42.034;25.834;2023-03-04T09:44:42;100344.81;;;14.63;74.96
9059;BME280;4564;42.034;25.834;2023-03-04T09:47:11;100347.59;;;14.37;75.12
9059;BME280;4564;42.034;25.834;2023-03-04T09:49:40;100343.19;;;14.42;76.92
9059;BME280;4564;42.034;25.834;2023-03-04T09:52:09;100339.19;;;14.45;75.33
9059;BME280;4564;42.034;25.834;2023-03-04T09:54:49;100334.09;;;14.75;73.97
9059;BME280;4564;42.034;25.834;2023-03-04T09:57:22;100334.66;;;15.09;75.83
9059;BME280;4564;42.034;25.834;2023-03-04T09:59:54;100317.03;;;14.86;72.64
9059;BME280;4564;42.034;25.834;2023-03-04T10:02:25;100325.31;;;14.59;72.38
9059;BME280;4564;42.034;25.834;2023-03-04T10:04:58;100313.53;;;14.00;74.22
9059;BME280;4564;42.034;25.834;2023-03-04T10:07:27;100308.88;;;13.61;74.99
9059;BME280;4564;42.034;25.834;2023-03-04T10:09:58;100303.44;;;13.54;75.13
9059;BME280;4564;42.034;25.834;2023-03-04T10:12:26;100300.69;;;13.54;75.84
9059;BME280;4564;42.034;25.834;2023-03-04T10:14:57;100294.63;;;13.78;78.22
9059;BME280;4564;42.034;25.834;2023-03-04T10:17:27;100293.38;;;13.68;76.00
9059;BME280;4564;42.034;25.834;2023-03-04T10:19:58;100285.19;;;13.74;75.74
9059;BME280;4564;42.034;25.834;2023-03-04T10:22:29;100290.84;;;13.66;76.92
9059;BME280;4564;42.034;25.834;2023-03-04T10:25:00;100290.03;;;14.05;78.17
9059;BME280;4564;42.034;25.834;2023-03-04T10:27:27;100290.44;;;13.69;77.00
9059;BME280;4564;42.034;25.834;2023-03-04T10:29:55;100279.72;;;13.61;74.32
9059;BME280;4564;42.034;25.834;2023-03-04T10:32:23;100278.47;;;13.64;75.38
9059;BME280;4564;42.034;25.834;2023-03-04T10:34:50;100272.63;;;13.86;76.46
9059;BME280;4564;42.034;25.834;2023-03-04T10:37:16;100276.19;;;14.07;75.94
9059;BME280;4564;42.034;25.834;2023-03-04T10:39:43;100269.66;;;13.88;75.25
9059;BME280;4564;42.034;25.834;2023-03-04T10:42:27;100265.69;;;14.17;73.36
9059;BME280;4564;42.034;25.834;2023-03-04T10:44:57;100263.41;;;14.14;73.54
9059;BME280;4564;42.034;25.834;2023-03-04T10:47:24;100255.59;;;13.58;74.42
9059;BME280;4564;42.034;25.834;2023-03-04T10:49:51;100260.44;;;13.96;74.93
9059;BME280;4564;42.034;25.834;2023-03-04T10:52:22;100262.75;;;14.12;74.04
9059;BME280;4564;42.034;25.834;2023-03-04T10:54:52;100250.16;;;14.04;74.24
9059;BME280;4564;42.034;25.834;2023-03-04T10:57:19;100253.06;;;14.55;73.63
9059;BME280;4564;42.034;25.834;2023-03-04T10:59:48;100247.78;;;14.60;71.41
9059;BME280;4564;42.034;25.834;2023-03-04T11:02:21;100244.66;;;14.57;71.61
9059;BME280;4564;42.034;25.834;2023-03-04T11:04:49;100244.88;;;14.55;71.60
9059;BME280;4564;42.034;25.834;2023-03-04T11:07:18;100236.19;;;14.72;71.54
9059;BME280;4564;42.034;25.834;2023-03-04T11:09:44;100229.81;;;14.91;71.30
9059;BME280;4564;42.034;25.834;2023-03-04T11:12:12;100227.00;;;14.53;70.10
9059;BME280;4564;42.034;25.834;2023-03-04T11:14:39;100220.00;;;14.70;70.07
9059;BME280;4564;42.034;25.834;2023-03-04T11:17:19;100216.94;;;14.98;69.80
9059;BME280;4564;42.034;25.834;2023-03-04T11:19:47;100211.66;;;15.03;70.58
9059;BME280;4564;42.034;25.834;2023-03-04T11:22:17;100208.03;;;14.78;71.92
9059;BME280;4564;42.034;25.834;2023-03-04T11:24:46;100206.03;;;14.98;71.56
9059;BME280;4564;42.034;25.834;2023-03-04T11:27:14;100200.25;;;15.12;68.39
9059;BME280;4564;42.034;25.834;2023-03-04T11:29:44;100191.41;;;15.17;66.97
9059;BME280;4564;42.034;25.834;2023-03-04T11:32:17;100189.31;;;15.12;67.54
9059;BME280;4564;42.034;25.834;2023-03-04T11:34:47;100189.28;;;15.19;68.08
9059;BME280;4564;42.034;25.834;2023-03-04T11:37:17;100189.59;;;15.36;66.90
9059;BME280;4564;42.034;25.834;2023-03-04T11:39:45;100184.69;;;15.13;67.16
9059;BME280;4564;42.034;25.834;2023-03-04T11:42:17;100179.75;;;14.97;68.27
9059;BME280;4564;42.034;25.834;2023-03-04T11:44:46;100174.28;;;14.97;68.97
9059;BME280;4564;42.034;25.834;2023-03-04T11:47:18;100185.97;;;14.73;68.94
9059;BME280;4564;42.034;25.834;2023-03-04T11:52:38;100175.47;;;15.07;71.06
9059;BME280;4564;42.034;25.834;2023-03-04T11:55:28;100179.84;;;15.15;70.57
9059;BME280;4564;42.034;25.834;2023-03-04T11:57:59;100168.81;;;14.97;73.71
9059;BME280;4564;42.034;25.834;2023-03-04T12:00:33;100168.75;;;15.10;71.84
9059;BME280;4564;42.034;25.834;2023-03-04T12:03:09;100171.31;;;15.05;73.07
9059;BME280;4564;42.034;25.834;2023-03-04T12:05:42;100157.38;;;15.13;70.59
9059;BME280;4564;42.034;25.834;2023-03-04T12:08:20;100155.25;;;14.84;69.72
9059;BME280;4564;42.034;25.834;2023-03-04T12:10:54;100156.88;;;14.91;70.15
9059;BME280;4564;42.034;25.834;2023-03-04T12:16:09;100136.72;;;15.17;70.35
9059;BME280;4564;42.034;25.834;2023-03-04T12:18:39;100145.94;;;15.23;69.62
9059;BME280;4564;42.034;25.834;2023-03-04T12:21:18;100155.38;;;15.58;68.09
9059;BME280;4564;42.034;25.834;2023-03-04T12:23:54;100145.34;;;15.95;66.09
9059;BME280;4564;42.034;25.834;2023-03-04T12:26:24;100145.34;;;15.95;66.30
9059;BME280;4564;42.034;25.834;2023-03-04T12:29:00;100145.19;;;15.90;66.46
9059;BME280;4564;42.034;25.834;2023-03-04T12:31:32;100134.09;;;15.85;66.46
9059;BME280;4564;42.034;25.834;2023-03-04T12:37:03;100137.69;;;16.04;65.71
9059;BME280;4564;42.034;25.834;2023-03-04T12:39:38;100132.94;;;15.74;67.64
9059;BME280;4564;42.034;25.834;2023-03-04T12:42:09;100130.59;;;15.53;66.81
9059;BME280;4564;42.034;25.834;2023-03-04T12:44:45;100131.16;;;15.30;67.97
9059;BME280;4564;42.034;25.834;2023-03-04T12:47:16;100125.31;;;15.27;68.85
9059;BME280;4564;42.034;25.834;2023-03-04T12:49:49;100123.69;;;15.19;68.76
9059;BME280;4564;42.034;25.834;2023-03-04T12:52:22;100128.09;;;15.20;68.08
9059;BME280;4564;42.034;25.834;2023-03-04T12:54:54;100126.44;;;14.81;68.87
9059;BME280;4564;42.034;25.834;2023-03-04T12:57:22;100120.31;;;14.86;68.31
9059;BME280;4564;42.034;25.834;2023-03-04T12:59:50;100117.16;;;14.89;67.53
9059;BME280;4564;42.034;25.834;2023-03-04T13:02:26;100117.16;;;14.89;68.49
9059;BME280;4564;42.034;25.834;2023-03-04T13:04:56;100119.41;;;14.67;68.40
9059;BME280;4564;42.034;25.834;2023-03-04T13:07:31;100108.50;;;14.60;69.73
9059;BME280;4564;42.034;25.834;2023-03-04T13:10:04;100107.16;;;14.76;70.03
9059;BME280;4564;42.034;25.834;2023-03-04T13:12:44;100102.53;;;14.77;68.78
9059;BME280;4564;42.034;25.834;2023-03-04T13:15:28;100096.38;;;14.88;69.75